Time;durP1;ratioP1;P1;durP2;ratioP2;P2;SDS_P1;SDS_P2;PMS_P1;PMS_P2;Temp;Humidity;BMP_temperature;BMP_pressure;BME280_temperature;BME280_humidity;BME280_pressure;Samples;Min_cycle;Max_cycle;Signal;HPM_P1;HPM_P2
2023/05/30 00:00:27;;;;;;;12.45;2.42;;;12.60;1.00;;;;;;5099265;28;20097;-72
2023/05/30 00:02:54;;;;;;;7.93;1.98;;;12.50;1.00;;;;;;5099883;28;20024;-72
2023/05/30 00:05:20;;;;;;;10.02;1.75;;;12.50;1.00;;;;;;5099857;28;20334;-72
2023/05/30 00:07:46;;;;;;;13.38;2.63;;;12.50;1.00;;;;;;5099475;28;20327;-72
2023/05/30 00:10:13;;;;;;;7.63;1.92;;;12.50;1.00;;;;;;5100002;28;20031;-72
2023/05/30 00:12:41;;;;;;;12.85;2.33;;;12.50;1.00;;;;;;5099599;28;20028;-72
2023/05/30 00:15:08;;;;;;;11.90;2.05;;;12.50;1.00;;;;;;5099825;28;20299;-72
2023/05/30 00:17:37;;;;;;;7.65;2.05;;;12.60;1.00;;;;;;5098921;28;20032;-73
2023/05/30 00:20:03;;;;;;;10.75;2.28;;;12.50;1.00;;;;;;5099534;28;20031;-72
2023/05/30 00:22:29;;;;;;;11.05;1.90;;;12.40;1.00;;;;;;5099537;28;20039;-73
2023/05/30 00:24:59;;;;;;;7.35;1.98;;;12.30;1.00;;;;;;5099064;28;20036;-73
2023/05/30 00:27:26;;;;;;;11.43;2.15;;;12.20;1.00;;;;;;5099814;28;20034;-73
2023/05/30 00:29:51;;;;;;;13.05;2.15;;;12.30;1.00;;;;;;5098607;28;20031;-73
2023/05/30 00:32:17;;;;;;;13.73;2.50;;;12.10;1.00;;;;;;5098576;28;20407;-73
2023/05/30 00:34:45;;;;;;;13.25;2.35;;;12.10;1.00;;;;;;5081743;28;20039;-73
2023/05/30 00:37:11;;;;;;;14.43;2.50;;;12.10;1.00;;;;;;5064834;28;20042;-73
2023/05/30 00:39:37;;;;;;;12.25;2.33;;;12.10;1.00;;;;;;5099059;28;20387;-73
2023/05/30 00:42:04;;;;;;;11.13;2.33;;;12.10;1.00;;;;;;5081542;28;20036;-73
2023/05/30 00:44:30;;;;;;;7.47;2.05;;;12.00;1.00;;;;;;5098938;28;20062;-72
2023/05/30 00:46:58;;;;;;;9.98;2.13;;;12.00;1.00;;;;;;5098384;28;20020;-72
2023/05/30 00:49:25;;;;;;;11.82;2.30;;;11.90;1.00;;;;;;5081414;28;20069;-72
2023/05/30 00:51:52;;;;;;;12.35;1.90;;;11.80;1.00;;;;;;5098812;28;20023;-73
2023/05/30 00:54:19;;;;;;;9.10;2.00;;;11.80;1.00;;;;;;5098737;28;20032;-72
2023/05/30 00:56:44;;;;;;;11.73;2.55;;;11.80;1.00;;;;;;5098857;28;20355;-72
2023/05/30 00:59:12;;;;;;;11.07;1.85;;;11.80;1.00;;;;;;5097972;28;20028;-72
2023/05/30 01:01:38;;;;;;;14.10;2.25;;;11.70;1.00;;;;;;5097907;28;20146;-72
2023/05/30 01:04:04;;;;;;;10.07;2.40;;;11.70;1.00;;;;;;5098508;28;20054;-73
2023/05/30 01:06:30;;;;;;;8.82;2.42;;;11.70;1.00;;;;;;5080435;28;20028;-72
2023/05/30 01:09:02;;;;;;;14.43;2.88;;;11.70;1.00;;;;;;5098668;28;20069;-72
2023/05/30 01:11:45;;;;;;;10.75;2.42;;;11.70;1.00;;;;;;5080906;28;20133;-72
2023/05/30 01:14:30;;;;;;;9.82;2.42;;;11.70;1.00;;;;;;5097736;28;20111;-72
2023/05/30 01:17:05;;;;;;;8.05;1.92;;;11.60;1.00;;;;;;5097640;28;20047;-72
2023/05/30 01:19:52;;;;;;;13.95;2.40;;;11.70;1.00;;;;;;5097678;28;20028;-73
2023/05/30 01:22:26;;;;;;;13.95;2.50;;;11.60;1.00;;;;;;5097496;28;20043;-72
2023/05/30 01:25:14;;;;;;;11.20;2.20;;;11.50;1.00;;;;;;5080481;28;20036;-72
2023/05/30 01:27:54;;;;;;;12.55;2.63;;;11.50;1.00;;;;;;5080584;28;20107;-72
2023/05/30 01:30:26;;;;;;;11.98;2.67;;;11.60;1.00;;;;;;5097373;28;20024;-72
2023/05/30 01:32:52;;;;;;;13.98;2.10;;;11.40;1.00;;;;;;5098154;28;20032;-73
2023/05/30 01:35:22;;;;;;;9.93;2.28;;;11.30;1.00;;;;;;5080246;28;20032;-73
2023/05/30 01:37:49;;;;;;;12.50;2.35;;;11.40;1.00;;;;;;5097971;28;20321;-71
2023/05/30 01:40:20;;;;;;;14.35;2.92;;;11.30;1.00;;;;;;5097849;28;20344;-71
2023/05/30 01:42:52;;;;;;;11.63;2.42;;;11.20;1.00;;;;;;5097934;28;20060;-72
2023/05/30 01:45:30;;;;;;;9.25;2.20;;;11.30;1.00;;;;;;5097779;28;20036;-72
2023/05/30 01:48:11;;;;;;;9.85;2.67;;;11.30;1.00;;;;;;5098049;28;20111;-72
2023/05/30 01:50:50;;;;;;;12.27;2.58;;;11.20;1.00;;;;;;5098090;28;20290;-72
2023/05/30 01:53:29;;;;;;;11.52;2.85;;;11.20;1.00;;;;;;5096956;28;20342;-73
2023/05/30 01:56:00;;;;;;;11.15;2.50;;;11.20;1.00;;;;;;5097726;28;20036;-72
2023/05/30 01:58:28;;;;;;;13.98;2.15;;;11.20;1.00;;;;;;5096910;28;20028;-73
2023/05/30 02:00:56;;;;;;;11.55;2.47;;;11.20;1.00;;;;;;5096693;28;20118;-73
2023/05/30 02:03:23;;;;;;;10.35;2.40;;;11.10;1.00;;;;;;5079931;28;20043;-72
2023/05/30 02:05:49;;;;;;;9.77;2.20;;;11.10;1.00;;;;;;5096909;28;20146;-72
2023/05/30 02:08:15;;;;;;;13.48;2.65;;;11.00;2.30;;;;;;5096449;28;20044;-72
2023/05/30 02:10:41;;;;;;;12.48;2.65;;;10.90;4.90;;;;;;5079803;28;20032;-72
2023/05/30 02:13:07;;;;;;;16.85;3.42;;;10.90;8.20;;;;;;5097349;28;20028;-72
2023/05/30 02:15:33;;;;;;;9.95;2.35;;;10.90;9.50;;;;;;5096572;28;20299;-73
2023/05/30 02:18:02;;;;;;;13.98;2.95;;;10.90;9.60;;;;;;5096842;28;20067;-72
2023/05/30 02:20:28;;;;;;;13.05;2.35;;;10.90;10.10;;;;;;5080385;28;20043;-72
2023/05/30 02:22:53;;;;;;;12.65;2.50;;;10.90;13.60;;;;;;5097614;28;20407;-72
2023/05/30 02:25:20;;;;;;;14.00;2.70;;;10.90;12.50;;;;;;5096782;28;20028;-73
2023/05/30 02:27:50;;;;;;;13.32;2.85;;;10.80;14.00;;;;;;5080567;28;20065;-73
2023/05/30 02:30:17;;;;;;;13.38;2.70;;;10.80;15.50;;;;;;5096867;28;20028;-72
2023/05/30 02:32:43;;;;;;;11.90;2.60;;;10.70;18.70;;;;;;5096529;28;20024;-73
2023/05/30 02:35:10;;;;;;;14.48;2.90;;;10.70;16.70;;;;;;5097214;28;20123;-72
2023/05/30 02:37:36;;;;;;;15.95;3.20;;;10.60;20.80;;;;;;5096358;28;20118;-70
2023/05/30 02:40:05;;;;;;;11.30;2.60;;;10.60;24.50;;;;;;5097238;28;20028;-72
2023/05/30 02:42:31;;;;;;;14.05;3.15;;;10.40;30.00;;;;;;5096475;28;20334;-72
2023/05/30 02:44:57;;;;;;;9.93;3.17;;;10.50;31.90;;;;;;5096188;28;20120;-72
2023/05/30 02:47:23;;;;;;;13.30;2.78;;;10.60;28.60;;;;;;5079427;28;20047;-72
2023/05/30 02:49:49;;;;;;;13.00;2.78;;;10.60;28.30;;;;;;5079407;28;20308;-72
2023/05/30 02:52:14;;;;;;;15.38;3.40;;;10.70;27.30;;;;;;5096186;28;20028;-73
2023/05/30 02:54:50;;;;;;;13.50;3.25;;;10.60;26.20;;;;;;5096146;28;20067;-73
2023/05/30 02:57:34;;;;;;;15.77;3.15;;;10.60;28.70;;;;;;5096967;28;20314;-73
2023/05/30 03:00:20;;;;;;;17.38;3.30;;;10.60;27.20;;;;;;5095886;28;20088;-72
2023/05/30 03:03:10;;;;;;;9.93;2.85;;;10.50;32.20;;;;;;5096367;28;20342;-72
2023/05/30 03:05:41;;;;;;;13.88;3.30;;;10.50;34.40;;;;;;5096212;28;20036;-72
2023/05/30 03:08:13;;;;;;;14.13;3.33;;;10.40;37.60;;;;;;5096006;28;20202;-72
2023/05/30 03:10:39;;;;;;;17.55;3.28;;;10.60;34.90;;;;;;5096986;28;20101;-72
2023/05/30 03:13:05;;;;;;;18.85;3.78;;;10.50;33.70;;;;;;5096761;28;20054;-72
2023/05/30 03:15:31;;;;;;;13.60;2.67;;;10.60;36.00;;;;;;5079580;28;20046;-72
2023/05/30 03:17:59;;;;;;;19.45;3.88;;;10.70;31.30;;;;;;5095857;28;20032;-72
2023/05/30 03:20:28;;;;;;;11.65;3.10;;;10.60;31.70;;;;;;5079186;28;20032;-71
2023/05/30 03:22:55;;;;;;;12.88;3.20;;;10.50;38.00;;;;;;5079195;28;20032;-71
2023/05/30 03:25:21;;;;;;;16.13;3.42;;;10.50;39.00;;;;;;5095869;28;20089;-71
2023/05/30 03:27:50;;;;;;;22.10;4.20;;;10.50;37.60;;;;;;5079125;28;20032;-71
2023/05/30 03:30:18;;;;;;;14.55;3.45;;;10.50;39.20;;;;;;5081570;28;20025;-71
2023/05/30 03:32:48;;;;;;;15.73;3.38;;;10.60;36.00;;;;;;5099871;28;20280;-70
2023/05/30 03:35:15;;;;;;;12.73;2.95;;;10.40;41.50;;;;;;5099557;28;20097;-72
2023/05/30 03:37:41;;;;;;;19.38;4.00;;;10.30;45.30;;;;;;5099470;28;20333;-72
2023/05/30 03:40:08;;;;;;;13.30;3.58;;;10.40;46.60;;;;;;5099403;28;20127;-71
2023/05/30 03:42:34;;;;;;;11.90;3.05;;;10.40;43.80;;;;;;5100160;28;20024;-73
2023/05/30 03:45:01;;;;;;;15.93;3.50;;;10.40;47.60;;;;;;5100033;28;20039;-72
2023/05/30 03:47:27;;;;;;;14.02;3.10;;;10.40;45.80;;;;;;5100338;28;20028;-71
2023/05/30 03:49:53;;;;;;;18.75;3.40;;;10.30;51.20;;;;;;5082411;28;20087;-71
2023/05/30 03:52:21;;;;;;;17.88;3.78;;;10.40;49.10;;;;;;5082774;28;20028;-71
2023/05/30 03:54:47;;;;;;;12.38;3.13;;;10.50;47.20;;;;;;5098863;28;20032;-71
2023/05/30 03:57:13;;;;;;;12.27;3.00;;;10.40;49.70;;;;;;5099307;28;20415;-72
2023/05/30 03:59:39;;;;;;;18.60;3.38;;;10.40;48.10;;;;;;5100028;28;20035;-71
2023/05/30 04:02:05;;;;;;;13.43;3.65;;;10.50;48.40;;;;;;5098966;28;20120;-71
2023/05/30 04:04:31;;;;;;;13.90;3.90;;;10.60;44.40;;;;;;5065478;28;20036;-71
2023/05/30 04:06:59;;;;;;;14.23;3.33;;;10.60;42.30;;;;;;5099010;28;20055;-71
2023/05/30 04:09:24;;;;;;;16.80;3.70;;;10.60;43.10;;;;;;5099825;28;20302;-71
2023/05/30 04:11:53;;;;;;;18.05;3.30;;;10.60;43.20;;;;;;5098928;28;20021;-71
2023/05/30 04:14:18;;;;;;;18.83;3.42;;;10.50;47.00;;;;;;5082251;28;20345;-74
2023/05/30 04:16:45;;;;;;;15.75;3.25;;;10.70;43.90;;;;;;5098751;28;20035;-71
2023/05/30 04:19:10;;;;;;;21.83;4.00;;;10.70;41.80;;;;;;5099388;28;20085;-71
2023/05/30 04:21:37;;;;;;;16.23;3.72;;;10.70;40.80;;;;;;5065430;28;20025;-71
2023/05/30 04:24:03;;;;;;;11.32;3.40;;;10.80;39.40;;;;;;5099284;28;20036;-71
2023/05/30 04:26:31;;;;;;;17.60;4.05;;;10.70;37.80;;;;;;5098845;28;20052;-71
2023/05/30 04:28:57;;;;;;;22.33;3.75;;;10.80;37.80;;;;;;5081936;28;20020;-72
2023/05/30 04:31:26;;;;;;;18.67;3.90;;;10.70;39.50;;;;;;5098650;28;20456;-73
2023/05/30 04:33:53;;;;;;;14.73;3.22;;;10.80;42.20;;;;;;5065008;28;20032;-73
2023/05/30 04:36:20;;;;;;;9.45;3.25;;;10.80;42.90;;;;;;5082042;28;20393;-70
2023/05/30 04:38:49;;;;;;;14.30;3.47;;;10.90;36.50;;;;;;5098292;28;20024;-71
2023/05/30 04:41:24;;;;;;;15.73;3.58;;;10.70;40.80;;;;;;5098329;28;20035;-72
2023/05/30 04:44:00;;;;;;;17.75;3.30;;;10.80;43.90;;;;;;5098209;28;20111;-71
2023/05/30 04:46:30;;;;;;;12.23;3.28;;;10.80;39.20;;;;;;5098779;28;20051;-73
2023/05/30 04:49:00;;;;;;;14.30;3.20;;;11.00;38.40;;;;;;5098103;28;20024;-72
2023/05/30 04:51:27;;;;;;;15.40;3.47;;;11.00;33.30;;;;;;5081557;28;20043;-72
2023/05/30 04:53:53;;;;;;;17.52;3.38;;;11.10;30.70;;;;;;5081198;28;20032;-72
2023/05/30 04:56:22;;;;;;;11.63;3.30;;;11.20;27.60;;;;;;5099360;28;20036;-72
2023/05/30 04:58:51;;;;;;;15.48;3.42;;;11.40;26.70;;;;;;5098668;28;20024;-72
2023/05/30 05:01:18;;;;;;;20.80;4.10;;;11.50;23.60;;;;;;5098856;28;20034;-72
2023/05/30 05:03:45;;;;;;;15.82;3.65;;;11.60;19.50;;;;;;5081271;28;20342;-72
2023/05/30 05:06:11;;;;;;;13.25;3.15;;;11.80;16.50;;;;;;5098517;28;20341;-73
2023/05/30 05:08:37;;;;;;;19.83;3.80;;;11.90;9.20;;;;;;5098409;28;20048;-71
2023/05/30 05:11:05;;;;;;;18.40;4.00;;;11.90;5.70;;;;;;5097805;28;20422;-73
2023/05/30 05:13:31;;;;;;;18.17;3.88;;;11.90;4.80;;;;;;5097889;28;20021;-73
2023/05/30 05:15:57;;;;;;;14.23;3.47;;;11.90;1.00;;;;;;5097799;28;20036;-72
2023/05/30 05:18:24;;;;;;;16.75;3.92;;;11.90;4.70;;;;;;5098317;28;20056;-72
2023/05/30 05:20:50;;;;;;;14.60;3.60;;;11.70;8.60;;;;;;5080881;28;20024;-74
2023/05/30 05:23:16;;;;;;;17.08;4.05;;;11.90;8.50;;;;;;5080784;28;20020;-72
2023/05/30 05:25:42;;;;;;;20.50;4.32;;;12.00;1.00;;;;;;5098001;28;20036;-72
2023/05/30 05:28:08;;;;;;;21.00;3.95;;;12.20;1.00;;;;;;5097290;28;20024;-71
2023/05/30 05:30:34;;;;;;;14.35;4.05;;;12.10;1.00;;;;;;5098141;28;20354;-73
2023/05/30 05:33:00;;;;;;;11.88;3.65;;;12.10;1.00;;;;;;5097941;28;20398;-71
2023/05/30 05:35:26;;;;;;;16.20;3.55;;;11.80;1.00;;;;;;5097313;28;20107;-73
2023/05/30 05:37:52;;;;;;;16.90;4.25;;;11.90;4.10;;;;;;5080322;28;20085;-72
2023/05/30 05:40:19;;;;;;;14.63;3.85;;;12.00;4.80;;;;;;5097192;28;20036;-72
2023/05/30 05:42:46;;;;;;;16.08;4.35;;;12.20;1.00;;;;;;5097813;28;20039;-72
2023/05/30 05:45:12;;;;;;;15.13;3.83;;;12.30;1.00;;;;;;5097815;28;20024;-74
2023/05/30 05:47:37;;;;;;;17.42;4.43;;;12.30;1.00;;;;;;5063404;28;20039;-73
2023/05/30 05:50:04;;;;;;;16.90;4.50;;;12.30;1.00;;;;;;5097760;28;20020;-73
2023/05/30 05:52:30;;;;;;;12.40;3.83;;;12.30;1.00;;;;;;5097686;28;20032;-73
2023/05/30 05:54:55;;;;;;;15.25;4.10;;;12.60;1.00;;;;;;5098526;28;20461;-73
2023/05/30 05:57:22;;;;;;;11.48;3.15;;;12.60;1.00;;;;;;5098149;28;20088;-73
2023/05/30 05:59:48;;;;;;;13.45;3.60;;;12.80;1.00;;;;;;5097645;28;20031;-72
2023/05/30 06:02:14;;;;;;;18.55;4.65;;;12.60;1.00;;;;;;5079914;28;20328;-73
2023/05/30 06:04:40;;;;;;;18.40;3.95;;;12.70;1.00;;;;;;5097239;28;20122;-73
2023/05/30 06:07:06;;;;;;;13.20;3.92;;;12.50;1.00;;;;;;5097214;28;20048;-72
2023/05/30 06:09:34;;;;;;;16.48;4.28;;;12.50;1.00;;;;;;5079920;28;20115;-72
2023/05/30 06:12:03;;;;;;;17.70;4.18;;;12.50;1.00;;;;;;5097902;28;20032;-74
2023/05/30 06:14:29;;;;;;;13.05;3.78;;;12.70;1.00;;;;;;5079814;28;20036;-74
2023/05/30 06:16:55;;;;;;;15.30;4.35;;;13.00;1.00;;;;;;5096610;28;20140;-75
2023/05/30 06:19:21;;;;;;;14.90;4.45;;;13.20;1.00;;;;;;5096379;28;20405;-73
2023/05/30 06:21:47;;;;;;;17.17;4.10;;;13.20;1.00;;;;;;5062895;28;20135;-73
2023/05/30 06:24:13;;;;;;;17.55;4.55;;;13.20;1.00;;;;;;5096361;28;20055;-72
2023/05/30 06:26:38;;;;;;;19.92;4.43;;;13.20;1.00;;;;;;5097550;28;20064;-74
2023/05/30 06:29:04;;;;;;;14.13;3.70;;;13.50;1.00;;;;;;5097318;28;20054;-72
2023/05/30 06:31:30;;;;;;;13.32;3.40;;;13.50;1.00;;;;;;5097238;28;20028;-75
2023/05/30 06:33:56;;;;;;;18.67;4.35;;;13.50;1.00;;;;;;5097071;28;20080;-68
2023/05/30 06:36:22;;;;;;;18.33;4.30;;;13.60;1.00;;;;;;5097095;28;20399;-67
2023/05/30 06:38:48;;;;;;;28.45;4.97;;;13.60;1.00;;;;;;5096367;28;20079;-67
2023/05/30 06:41:13;;;;;;;11.75;3.95;;;13.70;1.00;;;;;;5097575;28;20388;-67
2023/05/30 06:43:40;;;;;;;13.85;4.03;;;13.70;1.00;;;;;;5096140;28;20311;-67
2023/05/30 06:46:06;;;;;;;12.80;4.18;;;13.50;1.00;;;;;;5097050;28;20024;-67
2023/05/30 06:48:32;;;;;;;13.15;3.45;;;13.70;1.00;;;;;;5079348;28;20043;-67
2023/05/30 06:50:57;;;;;;;11.48;3.88;;;13.90;1.00;;;;;;5096871;28;20032;-68
2023/05/30 06:53:23;;;;;;;12.57;3.90;;;14.30;1.00;;;;;;5079252;28;20036;-68
2023/05/30 06:55:52;;;;;;;15.00;4.18;;;14.60;1.00;;;;;;5096206;28;20305;-68
2023/05/30 06:58:18;;;;;;;12.20;3.35;;;14.80;1.00;;;;;;5096891;28;20408;-68
2023/05/30 07:00:44;;;;;;;12.60;3.97;;;14.70;1.00;;;;;;5095981;28;20319;-67
2023/05/30 07:03:10;;;;;;;18.25;4.00;;;14.30;1.00;;;;;;5096134;28;20086;-68
2023/05/30 07:05:36;;;;;;;12.05;4.15;;;14.30;1.00;;;;;;5099902;28;20035;-67
2023/05/30 07:08:02;;;;;;;10.20;3.53;;;14.40;1.00;;;;;;5083100;28;20048;-69
2023/05/30 07:10:28;;;;;;;12.10;3.80;;;14.40;1.00;;;;;;5100994;28;20303;-68
2023/05/30 07:12:54;;;;;;;11.48;4.05;;;14.40;1.00;;;;;;5101083;28;20048;-70
2023/05/30 07:15:20;;;;;;;8.07;3.63;;;14.50;1.00;;;;;;5100731;28;20032;-67
2023/05/30 07:17:45;;;;;;;13.27;3.72;;;14.40;1.00;;;;;;5083213;28;20035;-68
2023/05/30 07:20:12;;;;;;;11.48;4.03;;;14.20;1.00;;;;;;5082833;28;20046;-67
2023/05/30 07:22:38;;;;;;;10.70;3.80;;;14.20;1.00;;;;;;5100358;28;20053;-67
2023/05/30 07:25:05;;;;;;;11.93;4.10;;;14.10;1.00;;;;;;5099469;28;20281;-67
2023/05/30 07:27:31;;;;;;;11.70;3.60;;;14.10;1.00;;;;;;5100847;28;20047;-68
2023/05/30 07:29:57;;;;;;;11.30;3.88;;;14.10;1.00;;;;;;5100477;28;20036;-67
2023/05/30 07:32:22;;;;;;;12.43;3.95;;;14.20;1.00;;;;;;5082819;28;20056;-67
2023/05/30 07:34:48;;;;;;;9.40;3.92;;;14.30;1.00;;;;;;5100279;28;20028;-67
2023/05/30 07:37:14;;;;;;;12.23;4.22;;;14.10;1.00;;;;;;5100275;28;20039;-67
2023/05/30 07:39:40;;;;;;;12.18;3.97;;;14.10;1.00;;;;;;5100256;28;20046;-67
2023/05/30 07:42:07;;;;;;;7.18;3.47;;;14.00;1.00;;;;;;5099366;28;20442;-68
2023/05/30 07:44:33;;;;;;;10.45;3.88;;;14.20;1.00;;;;;;5099999;28;20055;-67
2023/05/30 07:46:58;;;;;;;13.93;3.88;;;14.30;1.00;;;;;;5100066;28;20275;-68
2023/05/30 07:49:25;;;;;;;9.73;3.60;;;14.40;1.00;;;;;;5082352;28;20028;-68
2023/05/30 07:51:51;;;;;;;10.43;3.83;;;14.70;1.00;;;;;;5099362;28;20074;-68
2023/05/30 07:54:16;;;;;;;8.27;3.90;;;14.70;1.00;;;;;;5099181;28;20071;-67
2023/05/30 07:56:42;;;;;;;15.85;4.00;;;14.60;1.00;;;;;;5099879;28;20402;-68
2023/05/30 07:59:08;;;;;;;13.32;4.35;;;14.40;1.00;;;;;;5099155;28;20407;-67
2023/05/30 08:01:34;;;;;;;10.80;3.95;;;14.50;1.00;;;;;;5100395;28;20193;-68
2023/05/30 08:04:03;;;;;;;12.73;4.07;;;14.70;1.00;;;;;;5099068;28;20020;-67
2023/05/30 08:06:29;;;;;;;18.35;4.43;;;14.70;1.00;;;;;;5098815;28;20032;-68
2023/05/30 08:08:55;;;;;;;13.43;4.18;;;14.80;1.00;;;;;;5099098;28;20089;-69
2023/05/30 08:11:20;;;;;;;8.95;3.72;;;15.00;1.00;;;;;;5100213;28;20284;-68
2023/05/30 08:13:47;;;;;;;17.73;4.30;;;15.10;1.00;;;;;;5099664;28;20383;-68
2023/05/30 08:16:14;;;;;;;14.38;4.25;;;15.30;1.00;;;;;;5098361;28;20075;-68
2023/05/30 08:18:41;;;;;;;10.05;4.25;;;15.40;1.00;;;;;;5099271;28;20072;-68
2023/05/30 08:21:07;;;;;;;8.05;3.70;;;15.60;1.00;;;;;;5098703;28;20032;-68
2023/05/30 08:23:34;;;;;;;9.38;3.83;;;15.60;1.00;;;;;;5099275;28;20039;-68
2023/05/30 08:26:00;;;;;;;14.57;3.95;;;15.70;1.00;;;;;;5099445;28;20028;-68
2023/05/30 08:28:26;;;;;;;10.82;4.35;;;15.80;1.00;;;;;;5065087;28;20028;-68
2023/05/30 08:30:52;;;;;;;11.40;4.15;;;15.90;1.00;;;;;;5098783;28;20035;-68
2023/05/30 08:33:19;;;;;;;9.00;4.05;;;16.00;1.00;;;;;;5098454;28;20032;-68
2023/05/30 08:35:45;;;;;;;11.00;4.65;;;16.10;1.00;;;;;;5081526;28;20051;-68
2023/05/30 08:38:11;;;;;;;15.50;5.38;;;16.10;1.00;;;;;;5099137;28;20053;-68
2023/05/30 08:40:48;;;;;;;10.77;4.80;;;16.10;99.90;;;;;;5098827;28;20332;-68
2023/05/30 08:43:14;;;;;;;11.15;4.60;;;16.10;1.00;;;;;;5098304;28;20047;-67
2023/05/30 08:45:40;;;;;;;11.30;4.38;;;15.70;1.00;;;;;;5099311;28;20029;-68
2023/05/30 08:48:08;;;;;;;13.88;4.75;;;15.70;1.00;;;;;;5081612;28;20043;-68
2023/05/30 08:50:36;;;;;;;9.07;4.93;;;15.80;1.00;;;;;;5098730;28;20092;-68
2023/05/30 08:53:12;;;;;;;15.73;4.70;;;15.90;1.00;;;;;;5098112;28;20039;-68
2023/05/30 08:55:43;;;;;;;12.90;5.05;;;16.00;1.00;;;;;;5098196;28;20038;-68
2023/05/30 08:58:20;;;;;;;12.48;4.80;;;16.10;1.00;;;;;;5098289;28;20035;-67
2023/05/30 09:00:48;;;;;;;14.15;5.20;;;16.00;1.00;;;;;;5098673;28;20032;-68
2023/05/30 09:03:15;;;;;;;12.07;4.80;;;15.90;1.00;;;;;;5097867;28;20299;-70
2023/05/30 09:05:42;;;;;;;9.80;4.90;;;16.10;1.00;;;;;;5097935;28;20402;-68
2023/05/30 09:08:10;;;;;;;8.52;4.78;;;16.20;1.00;;;;;;5098417;28;20395;-68
2023/05/30 09:10:36;;;;;;;12.85;4.57;;;16.00;1.00;;;;;;5098477;28;20318;-68
2023/05/30 09:13:02;;;;;;;8.40;4.40;;;16.00;1.00;;;;;;5098469;28;20107;-68
2023/05/30 09:15:27;;;;;;;6.93;4.43;;;16.20;1.00;;;;;;5098233;28;20051;-67
2023/05/30 09:17:54;;;;;;;10.15;4.72;;;16.40;1.00;;;;;;5097495;28;20058;-68
2023/05/30 09:20:22;;;;;;;10.00;4.40;;;16.40;1.00;;;;;;5098258;28;20043;-68
2023/05/30 09:22:47;;;;;;;9.07;4.38;;;16.40;1.00;;;;;;5098130;28;20035;-67
2023/05/30 09:25:17;;;;;;;9.15;4.97;;;16.50;1.00;;;;;;5098066;28;20283;-67
2023/05/30 09:27:49;;;;;;;12.52;5.05;;;16.60;99.90;;;;;;5080125;28;20304;-67
2023/05/30 09:30:15;;;;;;;12.60;5.00;;;16.70;99.90;;;;;;5097296;28;20387;-66
2023/05/30 09:32:42;;;;;;;12.57;4.68;;;16.70;99.90;;;;;;5097920;28;20032;-66
2023/05/30 09:35:10;;;;;;;9.93;4.90;;;16.80;99.90;;;;;;5097981;28;20059;-67
2023/05/30 09:37:45;;;;;;;9.30;5.30;;;16.80;99.90;;;;;;5097803;28;20088;-67
2023/05/30 09:40:15;;;;;;;10.27;5.10;;;16.90;99.90;;;;;;5097129;28;20426;-67
2023/05/30 09:42:54;;;;;;;10.15;4.88;;;17.10;99.90;;;;;;5098383;28;20117;-67
2023/05/30 09:45:24;;;;;;;15.95;5.50;;;17.20;99.90;;;;;;5097802;28;20043;-66
2023/05/30 09:47:52;;;;;;;12.15;5.47;;;17.10;99.90;;;;;;5097589;28;20288;-67
2023/05/30 09:50:19;;;;;;;9.93;5.22;;;17.30;99.90;;;;;;5096975;28;20035;-67
2023/05/30 09:52:48;;;;;;;8.48;5.05;;;17.00;99.90;;;;;;5097822;28;20294;-67
2023/05/30 09:55:15;;;;;;;12.70;5.38;;;17.10;99.90;;;;;;5097543;28;20044;-66
2023/05/30 09:57:46;;;;;;;11.80;5.43;;;17.30;99.90;;;;;;5096763;28;20052;-67
2023/05/30 10:00:15;;;;;;;9.77;5.82;;;17.30;99.90;;;;;;5097717;28;20032;-67
2023/05/30 10:02:53;;;;;;;10.52;5.65;;;17.30;99.90;;;;;;5097498;28;20073;-67
2023/05/30 10:05:25;;;;;;;7.40;5.03;;;17.50;76.10;;;;;;5097598;28;20028;-67
2023/05/30 10:07:52;;;;;;;11.80;5.63;;;17.50;1.00;;;;;;5097441;28;20051;-67
2023/05/30 10:10:19;;;;;;;10.63;5.20;;;17.60;1.00;;;;;;5097425;28;20058;-67
2023/05/30 10:12:49;;;;;;;8.90;5.00;;;17.80;1.00;;;;;;5080295;28;20028;-67
2023/05/30 10:15:16;;;;;;;13.23;5.90;;;18.10;1.00;;;;;;5097325;28;20020;-67
2023/05/30 10:17:53;;;;;;;14.55;5.60;;;18.20;1.00;;;;;;5097200;28;20384;-67
2023/05/30 10:20:21;;;;;;;9.40;6.25;;;18.40;1.00;;;;;;5096417;28;20330;-67
2023/05/30 10:22:52;;;;;;;12.23;6.50;;;18.60;1.00;;;;;;5096473;28;20129;-67
2023/05/30 10:25:20;;;;;;;10.77;6.28;;;18.40;1.00;;;;;;5097073;28;20048;-68
2023/05/30 10:27:52;;;;;;;8.38;5.57;;;18.50;1.00;;;;;;5097135;28;20036;-68
2023/05/30 10:30:29;;;;;;;10.70;6.55;;;18.80;99.90;;;;;;5097027;28;20035;-67
2023/05/30 10:33:09;;;;;;;11.65;5.88;;;19.00;29.50;;;;;;5096259;28;20288;-67
2023/05/30 10:35:36;;;;;;;11.30;5.88;;;18.80;1.00;;;;;;5097066;28;20028;-68
2023/05/30 10:38:05;;;;;;;10.88;6.07;;;19.10;99.90;;;;;;5096557;28;20164;-68
2023/05/30 10:40:53;;;;;;;8.50;5.97;;;19.40;1.00;;;;;;5096336;28;20375;-68
2023/05/30 10:43:38;;;;;;;11.90;6.20;;;19.80;1.00;;;;;;5096357;28;20353;-67
2023/05/30 10:46:26;;;;;;;8.93;6.32;;;19.60;1.00;;;;;;5096287;28;20040;-67
2023/05/30 10:48:56;;;;;;;10.25;6.20;;;19.70;99.90;;;;;;5096719;28;20412;-67
2023/05/30 10:51:22;;;;;;;11.40;6.65;;;19.80;1.00;;;;;;5097911;28;20287;-68
2023/05/30 10:53:49;;;;;;;11.23;7.18;;;19.90;1.00;;;;;;5096113;28;20036;-68
2023/05/30 10:56:31;;;;;;;12.07;6.38;;;20.30;1.00;;;;;;5097456;28;20256;-68
2023/05/30 10:58:57;;;;;;;10.80;5.75;;;20.70;99.90;;;;;;5096024;28;20036;-68
2023/05/30 11:01:33;;;;;;;10.52;5.97;;;20.80;1.00;;;;;;5096853;28;20032;-67
2023/05/30 11:04:02;;;;;;;15.55;6.13;;;21.10;1.00;;;;;;5096817;28;20043;-69
2023/05/30 11:06:35;;;;;;;8.65;5.25;;;22.40;1.00;;;;;;5096682;28;20027;-69
2023/05/30 11:09:15;;;;;;;11.70;6.18;;;23.80;1.00;;;;;;5097005;28;20032;-66
2023/05/30 11:11:42;;;;;;;6.57;5.15;;;25.40;1.00;;;;;;5096003;28;20079;-69
2023/05/30 11:14:10;;;;;;;8.45;5.38;;;26.60;99.90;;;;;;5096663;28;20024;-68
2023/05/30 11:16:54;;;;;;;8.13;5.55;;;27.30;1.00;;;;;;5096738;28;20066;-67
2023/05/30 11:19:40;;;;;;;10.30;5.45;;;27.00;1.00;;;;;;5096518;28;20039;-68
2023/05/30 11:22:17;;;;;;;11.80;5.15;;;25.90;1.00;;;;;;5096177;28;20097;-68
2023/05/30 11:24:46;;;;;;;9.27;4.80;;;26.00;1.00;;;;;;5080057;28;20333;-68
2023/05/30 11:27:16;;;;;;;7.28;5.47;;;27.40;1.00;;;;;;5096553;28;20029;-67
2023/05/30 11:29:48;;;;;;;10.20;6.25;;;27.40;1.00;;;;;;5062426;28;20062;-67
2023/05/30 11:32:24;;;;;;;;;;;27.60;1.00;;;;;;5096332;28;20044;-68
2023/05/30 11:35:00;;;;;;;8.13;5.18;;;28.40;1.00;;;;;;5096902;28;19912;-68
2023/05/30 11:37:29;;;;;;;8.73;5.13;;;29.40;99.90;;;;;;5096474;28;20059;-68
2023/05/30 11:39:55;;;;;;;10.07;5.25;;;29.80;99.90;;;;;;5096363;28;20399;-68
2023/05/30 11:42:21;;;;;;;9.27;4.88;;;29.90;99.90;;;;;;5096388;28;20036;-68
2023/05/30 11:44:47;;;;;;;7.40;4.13;;;28.60;99.90;;;;;;5096650;28;20303;-68
2023/05/30 11:47:15;;;;;;;10.48;4.60;;;28.60;99.90;;;;;;5096322;28;20411;-68
2023/05/30 11:49:45;;;;;;;10.07;4.43;;;27.70;99.90;;;;;;5096319;28;20077;-67
2023/05/30 11:52:12;;;;;;;8.90;4.32;;;28.20;99.90;;;;;;5098727;28;20462;-67
2023/05/30 11:54:39;;;;;;;7.25;4.05;;;28.90;99.90;;;;;;5099923;28;20051;-68
2023/05/30 11:57:11;;;;;;;5.47;3.88;;;28.60;99.90;;;;;;5100419;28;20028;-68
2023/05/30 11:59:41;;;;;;;11.07;5.28;;;29.20;99.90;;;;;;5099856;28;20028;-68
2023/05/30 12:02:07;;;;;;;7.70;4.53;;;29.40;99.90;;;;;;5099675;28;20036;-67
2023/05/30 12:04:34;;;;;;;14.52;4.15;;;28.80;99.90;;;;;;5099703;28;20321;-68
2023/05/30 12:07:02;;;;;;;8.35;4.63;;;30.40;99.90;;;;;;5099609;28;20303;-67
2023/05/30 12:09:39;;;;;;;9.80;5.40;;;29.40;99.90;;;;;;5099647;28;20411;-68
2023/05/30 12:12:06;;;;;;;12.07;5.20;;;30.30;99.90;;;;;;5100207;28;20047;-68
2023/05/30 12:14:44;;;;;;;10.13;4.20;;;30.80;99.90;;;;;;5098951;28;20103;-68
2023/05/30 12:17:16;;;;;;;12.68;4.57;;;30.70;99.90;;;;;;5099550;28;20346;-68
2023/05/30 12:19:42;;;;;;;;;;;31.50;99.90;;;;;;5099867;28;20043;-68
2023/05/30 12:22:09;;;;;;;9.88;4.32;;;32.30;99.90;;;;;;5099469;28;19904;-68
2023/05/30 12:24:36;;;;;;;15.65;4.60;;;32.10;99.90;;;;;;5099116;28;20302;-69
2023/05/30 12:27:04;;;;;;;8.15;4.18;;;33.30;99.90;;;;;;5099040;28;20028;-69
2023/05/30 12:29:35;;;;;;;9.10;4.60;;;32.70;99.90;;;;;;5098396;28;20161;-68
2023/05/30 12:32:02;;;;;;;8.15;3.92;;;32.30;99.90;;;;;;5099220;28;20455;-69
2023/05/30 12:34:46;;;;;;;6.45;4.07;;;31.30;99.90;;;;;;5098535;28;20040;-69
2023/05/30 12:37:14;;;;;;;9.63;4.28;;;33.10;99.90;;;;;;5099180;28;20089;-69
2023/05/30 12:39:49;;;;;;;8.50;3.67;;;32.50;96.00;;;;;;5081812;28;20285;-69
2023/05/30 12:42:26;;;;;;;9.73;4.03;;;33.10;90.80;;;;;;5098325;28;20063;-69
2023/05/30 12:45:03;;;;;;;10.57;4.07;;;33.50;87.40;;;;;;5099250;28;20298;-70
2023/05/30 12:47:29;;;;;;;9.40;4.65;;;33.40;71.60;;;;;;5098971;28;20028;-69
2023/05/30 12:49:57;;;;;;;7.03;3.90;;;32.80;57.60;;;;;;5098880;28;20020;-69
2023/05/30 12:52:25;;;;;;;6.90;4.07;;;32.60;50.90;;;;;;5081257;28;20024;-69